createdAt,value
2023-08-08T00:00:21.001Z,11.24
2023-08-08T00:01:52.842Z,11.22
2023-08-08T00:03:24.755Z,11.20
2023-08-08T00:04:56.643Z,11.18
2023-08-08T00:06:29.034Z,11.16
2023-08-08T00:08:00.915Z,11.15
2023-08-08T00:09:32.940Z,11.12
2023-08-08T00:11:04.857Z,11.09
2023-08-08T00:12:36.735Z,11.07
2023-08-08T00:14:08.608Z,11.05
2023-08-08T00:15:40.680Z,11.04
2023-08-08T00:17:12.613Z,11.01
2023-08-08T00:18:44.538Z,11.00
2023-08-08T00:20:16.794Z,10.99
2023-08-08T00:21:48.641Z,10.97
2023-08-08T00:23:20.615Z,10.97
2023-08-08T00:24:52.503Z,10.95
2023-08-08T00:26:24.385Z,10.93
2023-08-08T00:27:56.292Z,10.92
2023-08-08T00:29:28.151Z,10.91
2023-08-08T00:31:00.097Z,10.89
2023-08-08T00:32:32.153Z,10.88
2023-08-08T00:34:04.095Z,10.88
2023-08-08T00:35:35.980Z,10.85
2023-08-08T00:37:08.959Z,10.85
2023-08-08T00:38:41.332Z,10.84
2023-08-08T00:40:13.232Z,10.83
2023-08-08T00:41:45.285Z,10.82
2023-08-08T00:43:17.222Z,10.84
2023-08-08T00:44:50.175Z,10.84
2023-08-08T00:46:23.640Z,10.86
2023-08-08T00:47:55.825Z,10.89
2023-08-08T00:49:27.781Z,10.93
2023-08-08T00:51:00.664Z,10.96
2023-08-08T00:52:32.709Z,10.99
2023-08-08T00:54:05.473Z,11.02
2023-08-08T00:55:37.732Z,11.03
2023-08-08T00:57:09.685Z,11.05
2023-08-08T00:58:42.050Z,11.06
2023-08-08T01:00:14.149Z,11.05
2023-08-08T01:01:46.178Z,11.06
2023-08-08T01:03:18.084Z,11.06
2023-08-08T01:04:50.359Z,11.04
2023-08-08T01:06:39.598Z,11.01
2023-08-08T01:08:17.508Z,11.03
2023-08-08T01:10:09.910Z,10.99
2023-08-08T01:11:42.951Z,10.99
2023-08-08T01:13:23.088Z,10.97
2023-08-08T01:14:55.798Z,10.95
2023-08-08T01:16:28.430Z,10.95
2023-08-08T01:18:07.866Z,10.91
2023-08-08T01:19:40.365Z,10.88
2023-08-08T01:21:12.828Z,10.85
2023-08-08T01:23:11.215Z,10.78
2023-08-08T01:24:45.226Z,10.81
2023-08-08T01:26:17.728Z,10.78
2023-08-08T01:27:49.901Z,10.75
2023-08-08T01:29:21.844Z,10.74
2023-08-08T01:30:55.304Z,10.73
2023-08-08T01:32:27.339Z,10.71
2023-08-08T01:33:59.631Z,10.69
2023-08-08T01:35:35.467Z,10.68
2023-08-08T01:37:22.119Z,10.64
2023-08-08T01:39:01.057Z,10.64
2023-08-08T01:40:33.476Z,10.63
2023-08-08T01:42:07.475Z,10.60
2023-08-08T01:43:40.756Z,10.58
2023-08-08T01:45:13.450Z,10.57
2023-08-08T01:46:45.400Z,10.55
2023-08-08T01:48:19.251Z,10.54
2023-08-08T01:49:51.181Z,10.54
2023-08-08T01:51:23.196Z,10.53
2023-08-08T01:52:55.111Z,10.54
2023-08-08T01:54:27.083Z,10.52
2023-08-08T01:55:58.956Z,10.53
2023-08-08T01:57:30.826Z,10.53
2023-08-08T01:59:04.464Z,10.52
2023-08-08T02:00:37.949Z,10.52
2023-08-08T02:02:10.066Z,10.50
2023-08-08T02:03:42.053Z,10.51
2023-08-08T02:05:14.153Z,10.48
2023-08-08T02:06:46.109Z,10.47
2023-08-08T02:08:19.514Z,10.46
2023-08-08T02:09:52.171Z,10.46
2023-08-08T02:11:24.127Z,10.45
2023-08-08T02:12:55.996Z,10.42
2023-08-08T02:14:28.885Z,10.40
2023-08-08T02:16:01.661Z,10.39
2023-08-08T02:17:33.562Z,10.39
2023-08-08T02:19:05.500Z,10.38
2023-08-08T02:20:37.775Z,10.36
2023-08-08T02:22:10.665Z,10.33
2023-08-08T02:23:42.591Z,10.33
2023-08-08T02:25:14.564Z,10.32
2023-08-08T02:26:46.427Z,10.30
2023-08-08T02:28:19.911Z,10.29
2023-08-08T02:29:51.838Z,10.27
2023-08-08T02:31:23.848Z,10.25
2023-08-08T02:32:56.492Z,10.23
2023-08-08T02:34:28.406Z,10.22
2023-08-08T02:36:02.075Z,10.22
2023-08-08T02:37:33.951Z,10.19
2023-08-08T02:39:05.881Z,10.18
2023-08-08T02:40:37.901Z,10.16
2023-08-08T02:42:09.832Z,10.14
2023-08-08T02:43:41.956Z,10.13
2023-08-08T02:45:13.840Z,10.12
2023-08-08T02:46:45.733Z,10.09
2023-08-08T02:48:18.768Z,10.09
2023-08-08T02:49:50.936Z,10.08
2023-08-08T02:51:23.192Z,10.07
2023-08-08T02:52:55.082Z,10.07
2023-08-08T02:54:30.810Z,10.08
2023-08-08T02:56:02.734Z,10.07
2023-08-08T02:57:38.745Z,10.06
2023-08-08T02:59:10.713Z,10.04
2023-08-08T03:00:42.644Z,10.06
2023-08-08T03:02:18.302Z,10.06
2023-08-08T03:03:51.139Z,10.04
2023-08-08T03:05:25.727Z,10.05
2023-08-08T03:06:57.762Z,10.07
2023-08-08T03:08:29.650Z,10.06
2023-08-08T03:10:03.225Z,10.06
2023-08-08T03:11:38.721Z,10.07
2023-08-08T03:13:12.689Z,10.07
2023-08-08T03:14:45.201Z,10.07
2023-08-08T03:16:17.210Z,10.06
2023-08-08T03:17:49.423Z,10.06
2023-08-08T03:19:21.885Z,10.05
2023-08-08T03:20:54.459Z,10.07
2023-08-08T03:22:27.252Z,10.05
2023-08-08T03:23:59.355Z,10.04
2023-08-08T03:25:31.488Z,10.05
2023-08-08T03:27:03.794Z,10.04
2023-08-08T03:28:35.661Z,10.05
2023-08-08T03:30:08.180Z,10.05
2023-08-08T03:31:45.514Z,10.05
2023-08-08T03:33:17.731Z,10.06
2023-08-08T03:34:49.822Z,10.05
2023-08-08T03:36:21.895Z,10.05
2023-08-08T03:37:53.984Z,10.07
2023-08-08T03:39:25.863Z,10.07
2023-08-08T03:40:57.728Z,10.06
2023-08-08T03:42:29.742Z,10.06
2023-08-08T03:44:04.018Z,10.08
2023-08-08T03:45:36.023Z,10.07
2023-08-08T03:47:18.710Z,10.05
2023-08-08T03:48:54.394Z,10.06
2023-08-08T03:50:26.629Z,10.05
2023-08-08T03:51:58.518Z,10.06
2023-08-08T03:53:30.650Z,10.06
2023-08-08T03:55:03.078Z,10.04
2023-08-08T03:56:35.752Z,10.06
2023-08-08T03:58:07.805Z,10.06
2023-08-08T03:59:40.537Z,10.05
2023-08-08T04:01:13.135Z,10.05
2023-08-08T04:02:45.648Z,10.06
2023-08-08T04:04:17.559Z,10.06
2023-08-08T04:05:49.508Z,10.08
2023-08-08T04:07:21.478Z,10.09
2023-08-08T04:08:54.880Z,10.10
2023-08-08T04:10:26.834Z,10.11
2023-08-08T04:11:59.246Z,10.12
2023-08-08T04:13:31.364Z,10.15
2023-08-08T04:15:03.464Z,10.16
2023-08-08T04:16:36.827Z,10.18
2023-08-08T04:18:08.800Z,10.21
2023-08-08T04:19:40.815Z,10.24
2023-08-08T04:21:12.689Z,10.27
2023-08-08T04:22:45.011Z,10.29
2023-08-08T04:24:17.180Z,10.33
2023-08-08T04:25:49.060Z,10.36
2023-08-08T04:27:20.937Z,10.41
2023-08-08T04:28:53.421Z,10.45
2023-08-08T04:30:25.372Z,10.48
2023-08-08T04:31:57.361Z,10.53
2023-08-08T04:33:29.363Z,10.58
2023-08-08T04:35:01.575Z,10.62
2023-08-08T04:36:33.645Z,10.68
2023-08-08T04:38:05.518Z,10.74
2023-08-08T04:39:37.375Z,10.79
2023-08-08T04:41:09.288Z,10.82
2023-08-08T04:42:41.500Z,10.85
2023-08-08T04:44:13.376Z,10.88
2023-08-08T04:45:45.231Z,10.94
2023-08-08T04:47:17.163Z,10.96
2023-08-08T04:48:49.074Z,11.00
2023-08-08T04:50:21.001Z,11.02
2023-08-08T04:51:52.867Z,11.04
2023-08-08T04:53:24.747Z,11.09
2023-08-08T04:54:56.643Z,11.11
2023-08-08T04:56:30.751Z,11.14
2023-08-08T04:58:02.765Z,11.16
2023-08-08T04:59:34.645Z,11.18
2023-08-08T05:01:06.614Z,11.22
2023-08-08T05:02:40.681Z,11.25
2023-08-08T05:04:12.718Z,11.25
2023-08-08T05:05:46.233Z,11.27
2023-08-08T05:07:18.155Z,11.29
2023-08-08T05:08:52.737Z,11.32
2023-08-08T05:10:25.031Z,11.34
2023-08-08T05:11:56.970Z,11.36
2023-08-08T05:13:28.853Z,11.40
2023-08-08T05:15:00.798Z,11.44
2023-08-08T05:16:32.786Z,11.49
2023-08-08T05:18:05.071Z,11.51
2023-08-08T05:19:37.077Z,11.56
2023-08-08T05:21:09.031Z,11.64
2023-08-08T05:22:41.042Z,11.71
2023-08-08T05:24:13.250Z,11.82
2023-08-08T05:25:46.711Z,11.98
2023-08-08T05:27:18.642Z,12.18
2023-08-08T05:28:50.764Z,12.44
2023-08-08T05:30:23.148Z,12.80
2023-08-08T05:31:55.115Z,13.17
2023-08-08T05:33:27.020Z,13.56
2023-08-08T05:34:59.099Z,13.97
2023-08-08T05:36:31.567Z,14.31
2023-08-08T05:38:03.513Z,14.65
2023-08-08T05:39:35.464Z,14.92
2023-08-08T05:41:07.327Z,15.17
2023-08-08T05:42:40.536Z,15.34
2023-08-08T05:44:12.705Z,15.49
2023-08-08T05:45:45.550Z,15.62
2023-08-08T05:47:17.479Z,15.68
2023-08-08T05:48:49.353Z,15.69
2023-08-08T05:50:21.268Z,15.70
2023-08-08T05:51:53.130Z,15.68
2023-08-08T05:53:25.329Z,15.64
2023-08-08T05:54:57.305Z,15.57
2023-08-08T05:56:36.954Z,15.49
2023-08-08T05:58:09.929Z,15.45
2023-08-08T05:59:42.191Z,15.39
2023-08-08T06:01:14.164Z,15.32
2023-08-08T06:02:46.230Z,15.25
2023-08-08T06:04:18.170Z,15.20
2023-08-08T06:05:50.286Z,15.13
2023-08-08T06:07:22.327Z,15.09
2023-08-08T06:08:54.320Z,15.00
2023-08-08T06:10:26.591Z,14.97
2023-08-08T06:11:59.029Z,14.93
2023-08-08T06:13:31.186Z,14.89
2023-08-08T06:15:05.173Z,14.83
2023-08-08T06:16:37.138Z,14.79
2023-08-08T06:18:09.161Z,14.74
2023-08-08T06:19:41.221Z,14.69
2023-08-08T06:21:13.297Z,14.65
2023-08-08T06:22:45.255Z,14.61
2023-08-08T06:24:17.230Z,14.57
2023-08-08T06:25:49.103Z,14.53
2023-08-08T06:27:20.998Z,14.46
2023-08-08T06:28:52.925Z,14.43
2023-08-08T06:30:24.809Z,14.38
2023-08-08T06:31:56.837Z,14.33
2023-08-08T06:33:29.554Z,14.28
2023-08-08T06:35:01.738Z,14.26
2023-08-08T06:36:33.866Z,14.22
2023-08-08T06:38:06.418Z,14.20
2023-08-08T06:39:39.967Z,14.18
2023-08-08T06:41:30.471Z,14.15
2023-08-08T06:43:20.920Z,14.11
2023-08-08T06:45:11.666Z,14.09
2023-08-08T06:46:43.719Z,14.07
2023-08-08T06:48:15.791Z,14.05
2023-08-08T06:49:47.705Z,14.04
2023-08-08T06:51:19.847Z,14.03
2023-08-08T06:52:52.125Z,14.02
2023-08-08T06:54:24.061Z,14.01
2023-08-08T06:55:55.961Z,14.00
2023-08-08T06:57:27.903Z,14.01
2023-08-08T06:58:59.765Z,14.00
2023-08-08T07:00:31.800Z,14.00
2023-08-08T07:02:04.166Z,13.99
2023-08-08T07:03:37.113Z,14.01
2023-08-08T07:05:11.238Z,14.01
2023-08-08T07:06:44.719Z,14.04
2023-08-08T07:08:16.757Z,14.06
2023-08-08T07:09:50.227Z,14.07
2023-08-08T07:11:23.336Z,14.10
2023-08-08T07:12:55.320Z,14.14
2023-08-08T07:14:27.333Z,14.17
2023-08-08T07:15:59.549Z,14.20
2023-08-08T07:17:31.641Z,14.26
2023-08-08T07:19:03.778Z,14.31
2023-08-08T07:20:35.733Z,14.36
2023-08-08T07:22:09.690Z,14.43
2023-08-08T07:23:41.717Z,14.49
2023-08-08T07:25:13.652Z,14.56
2023-08-08T07:26:45.655Z,14.63
2023-08-08T07:28:17.559Z,14.68
2023-08-08T07:29:49.419Z,14.78
2023-08-08T07:31:21.495Z,14.84
2023-08-08T07:32:53.493Z,14.92
2023-08-08T07:34:26.213Z,14.99
2023-08-08T07:35:58.115Z,15.05
2023-08-08T07:37:30.004Z,15.14
2023-08-08T07:39:01.970Z,15.22
2023-08-08T07:40:34.379Z,15.29
2023-08-08T07:42:06.416Z,15.36
2023-08-08T07:43:38.329Z,15.42
2023-08-08T07:45:10.698Z,15.51
2023-08-08T07:46:42.680Z,15.58
2023-08-08T07:48:14.645Z,15.67
2023-08-08T07:49:46.507Z,15.79
2023-08-08T07:51:18.635Z,15.93
2023-08-08T07:52:50.556Z,16.10
2023-08-08T07:54:22.462Z,16.25
2023-08-08T07:55:54.353Z,16.39
2023-08-08T07:57:28.070Z,16.52
2023-08-08T07:59:00.716Z,16.63
2023-08-08T08:00:32.676Z,16.75
2023-08-08T08:02:05.124Z,16.84
2023-08-08T08:03:37.325Z,16.92
2023-08-08T08:05:09.790Z,16.99
2023-08-08T08:06:42.892Z,17.07
2023-08-08T08:08:16.223Z,17.15
2023-08-08T08:09:48.160Z,17.21
2023-08-08T08:11:20.860Z,17.25
2023-08-08T08:12:59.127Z,17.27
2023-08-08T08:14:31.066Z,17.29
2023-08-08T08:16:03.105Z,17.30
2023-08-08T08:17:35.116Z,17.31
2023-08-08T08:19:07.049Z,17.31
2023-08-08T08:20:39.199Z,17.32
2023-08-08T08:22:11.107Z,17.34
2023-08-08T08:23:43.013Z,17.35
2023-08-08T08:25:16.060Z,17.37
2023-08-08T08:26:47.960Z,17.38
2023-08-08T08:28:19.933Z,17.39
2023-08-08T08:29:51.791Z,17.43
2023-08-08T08:31:23.805Z,17.46
2023-08-08T08:32:56.598Z,17.52
2023-08-08T08:34:28.562Z,17.55
2023-08-08T08:36:00.474Z,17.62
2023-08-08T08:37:32.410Z,17.65
2023-08-08T08:39:04.880Z,17.70
2023-08-08T08:40:39.190Z,17.73
2023-08-08T08:42:16.500Z,17.74
2023-08-08T08:43:49.976Z,17.77
2023-08-08T08:45:22.914Z,17.78
2023-08-08T08:46:56.977Z,17.77
2023-08-08T08:48:29.494Z,17.76
2023-08-08T08:50:03.289Z,17.73
2023-08-08T08:51:40.016Z,17.71
2023-08-08T08:53:14.135Z,17.68
2023-08-08T08:54:46.416Z,17.64
2023-08-08T08:56:19.257Z,17.63
2023-08-08T08:57:52.119Z,17.58
2023-08-08T08:59:24.049Z,17.55
2023-08-08T09:00:58.257Z,17.51
2023-08-08T09:02:30.384Z,17.46
2023-08-08T09:04:04.463Z,17.39
2023-08-08T09:05:36.874Z,17.33
2023-08-08T09:07:10.537Z,17.27
2023-08-08T09:08:42.490Z,17.21
2023-08-08T09:10:17.396Z,17.13
2023-08-08T09:11:50.773Z,17.06
2023-08-08T09:13:24.180Z,16.97
2023-08-08T09:15:00.052Z,16.88
2023-08-08T09:16:32.410Z,16.79
2023-08-08T09:18:04.582Z,16.70
2023-08-08T09:19:36.567Z,16.62
2023-08-08T09:21:08.450Z,16.54
2023-08-08T09:22:40.475Z,16.49
2023-08-08T09:24:12.935Z,16.43
2023-08-08T09:25:45.145Z,16.39
2023-08-08T09:27:17.477Z,16.34
2023-08-08T09:28:49.415Z,16.31
2023-08-08T09:30:22.028Z,16.28
2023-08-08T09:31:54.000Z,16.26
2023-08-08T09:33:30.142Z,16.23
2023-08-08T09:35:02.031Z,16.22
2023-08-08T09:36:36.304Z,16.21
2023-08-08T09:38:08.783Z,16.18
2023-08-08T09:39:40.724Z,16.16
2023-08-08T09:41:13.220Z,16.14
2023-08-08T09:42:45.326Z,16.13
2023-08-08T09:44:17.326Z,16.12
2023-08-08T09:45:49.515Z,16.10
2023-08-08T09:47:23.577Z,16.10
2023-08-08T09:48:56.357Z,16.08
2023-08-08T09:50:29.979Z,16.06
2023-08-08T09:52:04.002Z,16.07
2023-08-08T09:53:36.517Z,16.08
2023-08-08T09:55:09.036Z,16.07
2023-08-08T09:56:41.697Z,16.10
2023-08-08T09:58:15.176Z,16.11
2023-08-08T09:59:48.447Z,16.15
2023-08-08T10:01:22.029Z,16.15
2023-08-08T10:02:54.190Z,16.17
2023-08-08T10:04:26.818Z,16.20
2023-08-08T10:05:58.765Z,16.22
2023-08-08T10:07:31.606Z,16.27
2023-08-08T10:09:04.739Z,16.32
2023-08-08T10:10:38.346Z,16.35
2023-08-08T10:12:12.578Z,16.41
2023-08-08T10:13:51.871Z,16.45
2023-08-08T10:15:28.540Z,16.53
2023-08-08T10:17:03.591Z,16.58
2023-08-08T10:18:36.111Z,16.64
2023-08-08T10:20:13.067Z,16.71
2023-08-08T10:21:46.580Z,16.78
2023-08-08T10:23:19.820Z,16.85
2023-08-08T10:24:55.760Z,16.91
2023-08-08T10:26:29.495Z,16.99
2023-08-08T10:28:26.358Z,17.07
2023-08-08T10:30:05.322Z,17.19
2023-08-08T10:31:37.788Z,17.28
2023-08-08T10:33:17.269Z,17.35
2023-08-08T10:34:49.416Z,17.45
2023-08-08T10:36:22.300Z,17.54
2023-08-08T10:37:58.936Z,17.65
2023-08-08T10:39:32.098Z,17.76
2023-08-08T10:41:04.368Z,17.84
2023-08-08T10:42:44.584Z,17.94
2023-08-08T10:44:26.368Z,18.04
2023-08-08T10:46:13.024Z,18.17
2023-08-08T10:47:48.828Z,18.27
2023-08-08T10:49:20.971Z,18.36
2023-08-08T10:50:57.277Z,18.40
2023-08-08T10:52:30.168Z,18.45
2023-08-08T10:54:07.910Z,18.50
2023-08-08T10:55:39.990Z,18.57
2023-08-08T10:57:17.593Z,18.57
2023-08-08T10:58:50.516Z,18.61
2023-08-08T11:00:25.961Z,18.58
2023-08-08T11:01:58.495Z,18.59
2023-08-08T11:03:31.447Z,18.60
2023-08-08T11:05:04.888Z,18.62
2023-08-08T11:06:36.879Z,18.64
2023-08-08T11:08:09.120Z,18.65
2023-08-08T11:09:41.034Z,18.64
2023-08-08T11:11:13.739Z,18.68
2023-08-08T11:13:01.900Z,18.71
2023-08-08T11:14:33.997Z,18.82
2023-08-08T11:16:06.168Z,18.92
2023-08-08T11:17:38.207Z,19.04
2023-08-08T11:19:11.076Z,19.18
2023-08-08T11:20:43.805Z,19.35
2023-08-08T11:22:15.699Z,19.48
2023-08-08T11:23:48.988Z,19.63
2023-08-08T11:25:22.181Z,19.75
2023-08-08T11:27:00.109Z,19.84
2023-08-08T11:28:32.061Z,19.93
2023-08-08T11:30:05.711Z,20.03
2023-08-08T11:31:39.166Z,20.10
2023-08-08T11:33:15.892Z,20.13
2023-08-08T11:34:49.035Z,20.20
2023-08-08T11:36:21.997Z,20.24
2023-08-08T11:37:57.008Z,20.32
2023-08-08T11:39:30.503Z,20.43
2023-08-08T11:41:02.577Z,20.54
2023-08-08T11:42:34.613Z,20.75
2023-08-08T11:44:10.011Z,20.94
2023-08-08T11:45:44.208Z,21.19
2023-08-08T11:47:16.090Z,21.45
2023-08-08T11:48:48.122Z,21.69
2023-08-08T11:50:21.779Z,21.93
2023-08-08T11:51:57.026Z,22.16
2023-08-08T11:53:29.134Z,22.33
2023-08-08T11:55:04.154Z,22.47
2023-08-08T11:56:37.684Z,22.59
2023-08-08T11:58:15.715Z,22.70
2023-08-08T11:59:50.802Z,22.75
2023-08-08T12:01:24.533Z,22.79
2023-08-08T12:02:57.153Z,22.79
2023-08-08T12:04:29.288Z,22.80
2023-08-08T12:06:01.172Z,22.78
2023-08-08T12:07:35.615Z,22.76
2023-08-08T12:09:07.902Z,22.71
2023-08-08T12:10:39.922Z,22.66
2023-08-08T12:12:11.838Z,22.60
2023-08-08T12:13:45.343Z,22.53
2023-08-08T12:15:17.390Z,22.45
2023-08-08T12:16:49.443Z,22.34
2023-08-08T12:18:21.963Z,22.23
2023-08-08T12:19:53.895Z,22.10
2023-08-08T12:21:25.952Z,21.94
2023-08-08T12:22:58.743Z,21.76
2023-08-08T12:24:30.744Z,21.60
2023-08-08T12:26:08.726Z,21.40
2023-08-08T12:27:40.642Z,21.17
2023-08-08T12:29:13.398Z,20.94
2023-08-08T12:30:45.354Z,20.70
2023-08-08T12:32:17.290Z,20.46
2023-08-08T12:33:50.224Z,20.23
2023-08-08T12:35:22.317Z,20.02
2023-08-08T12:36:54.191Z,19.81
2023-08-08T12:38:26.047Z,19.60
2023-08-08T12:39:58.299Z,19.44
2023-08-08T12:41:31.007Z,19.29
2023-08-08T12:43:02.936Z,19.16
2023-08-08T12:44:34.886Z,19.07
2023-08-08T12:46:06.880Z,19.01
2023-08-08T12:47:39.065Z,18.99
2023-08-08T12:49:11.297Z,19.05
2023-08-08T12:50:43.716Z,19.08
2023-08-08T12:52:15.638Z,19.11
2023-08-08T12:53:47.577Z,19.15
2023-08-08T12:55:19.873Z,19.18
2023-08-08T12:56:51.749Z,19.19
2023-08-08T12:58:24.388Z,19.19
2023-08-08T12:59:56.392Z,19.18
2023-08-08T13:01:28.557Z,19.16
2023-08-08T13:03:02.338Z,19.15
2023-08-08T13:04:35.143Z,19.12
2023-08-08T13:06:07.101Z,19.08
2023-08-08T13:07:38.985Z,19.06
2023-08-08T13:09:11.823Z,19.03
2023-08-08T13:10:43.796Z,18.99
2023-08-08T13:12:15.832Z,18.97
2023-08-08T13:13:47.690Z,18.96
2023-08-08T13:15:19.663Z,18.98
2023-08-08T13:16:52.597Z,19.06
2023-08-08T13:18:24.470Z,19.15
2023-08-08T13:19:56.344Z,19.27
2023-08-08T13:21:28.461Z,19.42
2023-08-08T13:23:00.380Z,19.59
2023-08-08T13:24:32.703Z,19.71
2023-08-08T13:26:04.951Z,19.87
2023-08-08T13:27:37.480Z,20.01
2023-08-08T13:29:10.053Z,20.15
2023-08-08T13:30:44.273Z,20.30
2023-08-08T13:32:16.412Z,20.45
2023-08-08T13:33:48.305Z,20.58
2023-08-08T13:35:20.298Z,20.72
2023-08-08T13:36:52.188Z,20.85
2023-08-08T13:38:25.099Z,20.98
2023-08-08T13:39:57.103Z,21.10
2023-08-08T13:41:29.022Z,21.23
2023-08-08T13:43:00.882Z,21.37
2023-08-08T13:44:32.800Z,21.50
2023-08-08T13:46:09.067Z,21.66
2023-08-08T13:47:41.222Z,21.86
2023-08-08T13:49:13.341Z,22.06
2023-08-08T13:50:45.494Z,22.27
2023-08-08T13:52:17.410Z,22.50
2023-08-08T13:53:50.412Z,22.68
2023-08-08T13:55:22.406Z,22.83
2023-08-08T13:56:54.319Z,22.95
2023-08-08T13:58:26.364Z,23.06
2023-08-08T13:59:58.616Z,23.17
2023-08-08T14:01:30.528Z,23.28
2023-08-08T14:03:03.587Z,23.40
2023-08-08T14:04:35.585Z,23.56
2023-08-08T14:06:07.540Z,23.69
2023-08-08T14:07:39.484Z,23.77
2023-08-08T14:09:12.061Z,23.82
2023-08-08T14:10:44.789Z,23.83
2023-08-08T14:12:16.872Z,23.82
2023-08-08T14:13:49.073Z,23.77
2023-08-08T14:15:20.981Z,23.68
2023-08-08T14:16:53.840Z,23.55
2023-08-08T14:18:26.412Z,23.42
2023-08-08T14:19:58.278Z,23.25
2023-08-08T14:21:30.202Z,23.07
2023-08-08T14:23:02.147Z,22.89
2023-08-08T14:24:34.096Z,22.71
2023-08-08T14:26:06.229Z,22.55
2023-08-08T14:27:38.409Z,22.40
2023-08-08T14:29:10.273Z,22.28
2023-08-08T14:30:42.190Z,22.16
2023-08-08T14:32:14.114Z,22.08
2023-08-08T14:33:46.022Z,22.00
2023-08-08T14:35:17.889Z,21.95
2023-08-08T14:36:50.064Z,21.92
2023-08-08T14:38:25.061Z,21.93
2023-08-08T14:39:56.926Z,21.93
2023-08-08T14:41:29.339Z,21.98
2023-08-08T14:43:01.617Z,22.01
2023-08-08T14:44:33.503Z,22.07
2023-08-08T14:46:05.470Z,22.16
2023-08-08T14:47:37.416Z,22.31
2023-08-08T14:49:10.186Z,22.50
2023-08-08T14:50:42.167Z,22.74
2023-08-08T14:52:14.558Z,23.02
2023-08-08T14:53:46.464Z,23.31
2023-08-08T14:55:18.365Z,23.61
2023-08-08T14:56:50.377Z,23.88
2023-08-08T14:58:23.173Z,24.17
2023-08-08T14:59:59.506Z,24.45
2023-08-08T15:01:31.489Z,24.69
2023-08-08T15:03:03.574Z,24.87
2023-08-08T15:04:36.013Z,25.00
2023-08-08T15:06:08.084Z,25.10
2023-08-08T15:07:40.106Z,25.16
2023-08-08T15:09:12.451Z,25.19
2023-08-08T15:10:44.303Z,25.19
2023-08-08T15:12:17.731Z,25.17
2023-08-08T15:13:49.753Z,25.13
2023-08-08T15:15:24.329Z,25.04
2023-08-08T15:16:58.091Z,24.93
2023-08-08T15:18:30.410Z,24.83
2023-08-08T15:20:02.647Z,24.70
2023-08-08T15:21:34.878Z,24.57
2023-08-08T15:23:06.839Z,24.46
2023-08-08T15:24:38.723Z,24.35
2023-08-08T15:26:10.587Z,24.27
2023-08-08T15:27:42.640Z,24.27
2023-08-08T15:29:14.516Z,24.30
2023-08-08T15:30:46.482Z,24.35
2023-08-08T15:32:18.462Z,24.45
2023-08-08T15:33:50.340Z,24.53
2023-08-08T15:35:22.218Z,24.61
2023-08-08T15:36:54.178Z,24.65
2023-08-08T15:38:26.076Z,24.64
2023-08-08T15:40:00.211Z,24.59
2023-08-08T15:41:32.180Z,24.48
2023-08-08T15:43:04.107Z,24.35
2023-08-08T15:44:36.143Z,24.19
2023-08-08T15:46:08.915Z,24.02
2023-08-08T15:47:40.828Z,23.77
2023-08-08T15:49:13.784Z,23.55
2023-08-08T15:50:46.043Z,23.30
2023-08-08T15:52:18.417Z,23.03
2023-08-08T15:53:50.254Z,22.79
2023-08-08T15:55:22.772Z,22.56
2023-08-08T15:56:54.741Z,22.31
2023-08-08T15:58:27.496Z,22.09
2023-08-08T15:59:59.680Z,21.85
2023-08-08T16:01:31.596Z,21.61
2023-08-08T16:03:03.898Z,21.42
2023-08-08T16:04:35.934Z,21.19
2023-08-08T16:06:07.876Z,21.00
2023-08-08T16:07:39.723Z,20.82
2023-08-08T16:09:11.741Z,20.65
2023-08-08T16:10:43.611Z,20.54
2023-08-08T16:12:15.792Z,20.42
2023-08-08T16:13:47.945Z,20.30
2023-08-08T16:15:20.024Z,20.22
2023-08-08T16:16:52.266Z,20.14
2023-08-08T16:18:24.203Z,20.08
2023-08-08T16:19:56.043Z,20.02
2023-08-08T16:21:27.973Z,19.99
2023-08-08T16:22:59.888Z,19.92
2023-08-08T16:24:31.789Z,19.87
2023-08-08T16:26:03.771Z,19.82
2023-08-08T16:27:36.610Z,19.79
2023-08-08T16:29:08.631Z,19.72
2023-08-08T16:30:40.572Z,19.65
2023-08-08T16:32:12.460Z,19.57
2023-08-08T16:33:44.425Z,19.51
2023-08-08T16:35:16.340Z,19.39
2023-08-08T16:36:49.218Z,19.34
2023-08-08T16:38:21.127Z,19.26
2023-08-08T16:39:53.077Z,19.21
2023-08-08T16:41:24.938Z,19.14
2023-08-08T16:42:57.118Z,19.11
2023-08-08T16:44:29.030Z,19.04
2023-08-08T16:46:00.896Z,18.97
2023-08-08T16:47:32.813Z,18.95
2023-08-08T16:49:04.761Z,18.90
2023-08-08T16:50:36.660Z,18.86
2023-08-08T16:52:08.595Z,18.84
2023-08-08T16:53:40.466Z,18.81
2023-08-08T16:55:12.471Z,18.78
2023-08-08T16:56:44.390Z,18.74
2023-08-08T16:58:16.341Z,18.74
2023-08-08T16:59:48.248Z,18.74
2023-08-08T17:01:20.506Z,18.73
2023-08-08T17:02:52.496Z,18.73
2023-08-08T17:04:24.493Z,18.73
2023-08-08T17:05:56.385Z,18.73
2023-08-08T17:07:30.397Z,18.72
2023-08-08T17:09:02.306Z,18.72
2023-08-08T17:10:34.233Z,18.70
2023-08-08T17:12:06.724Z,18.69
2023-08-08T17:13:39.091Z,18.68
2023-08-08T17:15:11.146Z,18.63
2023-08-08T17:16:43.165Z,18.63
2023-08-08T17:18:15.066Z,18.59
2023-08-08T17:19:47.061Z,18.55
2023-08-08T17:21:19.113Z,18.53
2023-08-08T17:22:51.047Z,18.49
2023-08-08T17:24:28.160Z,18.46
2023-08-08T17:26:04.304Z,18.44
2023-08-08T17:27:36.901Z,18.40
2023-08-08T17:29:08.831Z,18.35
2023-08-08T17:30:40.798Z,18.29
2023-08-08T17:32:12.750Z,18.23
2023-08-08T17:33:44.766Z,18.17
2023-08-08T17:35:17.429Z,18.11
2023-08-08T17:36:50.355Z,18.04
2023-08-08T17:38:22.281Z,17.96
2023-08-08T17:39:54.176Z,17.90
2023-08-08T17:41:26.129Z,17.82
2023-08-08T17:42:58.072Z,17.75
2023-08-08T17:44:29.952Z,17.67
2023-08-08T17:46:01.920Z,17.59
2023-08-08T17:47:34.507Z,17.52
2023-08-08T17:49:06.489Z,17.44
2023-08-08T17:50:38.403Z,17.37
2023-08-08T17:52:13.145Z,17.30
2023-08-08T17:53:45.035Z,17.24
2023-08-08T17:55:17.028Z,17.17
2023-08-08T17:56:49.078Z,17.11
2023-08-08T17:58:20.999Z,17.04
2023-08-08T17:59:52.926Z,16.98
2023-08-08T18:01:25.419Z,16.92
2023-08-08T18:02:59.074Z,16.88
2023-08-08T18:04:32.396Z,16.84
2023-08-08T18:06:04.421Z,16.81
2023-08-08T18:07:36.349Z,16.76
2023-08-08T18:09:08.335Z,16.73
2023-08-08T18:10:43.618Z,16.67
2023-08-08T18:12:15.554Z,16.66
2023-08-08T18:13:49.125Z,16.63
2023-08-08T18:15:21.308Z,16.60
2023-08-08T18:16:53.272Z,16.56
2023-08-08T18:18:27.307Z,16.52
2023-08-08T18:19:59.229Z,16.47
2023-08-08T18:21:32.715Z,16.45
2023-08-08T18:23:05.360Z,16.40
2023-08-08T18:24:37.337Z,16.37
2023-08-08T18:26:09.617Z,16.32
2023-08-08T18:27:41.520Z,16.28
2023-08-08T18:29:13.390Z,16.23
2023-08-08T18:30:45.674Z,16.19
2023-08-08T18:32:17.541Z,16.16
2023-08-08T18:33:49.468Z,16.13
2023-08-08T18:35:21.409Z,16.08
2023-08-08T18:36:53.290Z,16.02
2023-08-08T18:38:25.413Z,15.98
2023-08-08T18:39:57.427Z,15.94
2023-08-08T18:41:29.864Z,15.88
2023-08-08T18:43:01.795Z,15.82
2023-08-08T18:44:33.849Z,15.76
2023-08-08T18:46:06.828Z,15.70
2023-08-08T18:47:38.881Z,15.63
2023-08-08T18:49:10.848Z,15.58
2023-08-08T18:50:42.870Z,15.51
2023-08-08T18:52:14.754Z,15.45
2023-08-08T18:53:46.828Z,15.38
2023-08-08T18:55:18.717Z,15.31
2023-08-08T18:56:51.286Z,15.25
2023-08-08T18:58:23.342Z,15.20
2023-08-08T18:59:55.237Z,15.13
2023-08-08T19:01:27.535Z,15.06
2023-08-08T19:02:59.838Z,15.00
2023-08-08T19:04:31.794Z,14.94
2023-08-08T19:06:04.584Z,14.89
2023-08-08T19:07:36.531Z,14.83
2023-08-08T19:09:11.358Z,14.78
2023-08-08T19:10:43.203Z,14.72
2023-08-08T19:12:15.071Z,14.67
2023-08-08T19:13:47.055Z,14.60
2023-08-08T19:15:19.004Z,14.55
2023-08-08T19:16:50.912Z,14.50
2023-08-08T19:18:23.773Z,14.45
2023-08-08T19:19:55.682Z,14.39
2023-08-08T19:21:27.740Z,14.34
2023-08-08T19:22:59.619Z,14.29
2023-08-08T19:24:32.093Z,14.24
2023-08-08T19:26:04.270Z,14.20
2023-08-08T19:27:36.146Z,14.13
2023-08-08T19:29:08.554Z,14.09
2023-08-08T19:30:40.782Z,14.03
2023-08-08T19:32:12.785Z,13.98
2023-08-08T19:34:00.081Z,13.95
2023-08-08T19:35:36.857Z,13.90
2023-08-08T19:37:08.748Z,13.87
2023-08-08T19:38:40.650Z,13.86
2023-08-08T19:40:12.553Z,13.84
2023-08-08T19:41:44.586Z,13.82
2023-08-08T19:43:16.560Z,13.82
2023-08-08T19:44:48.568Z,13.81
2023-08-08T19:46:20.543Z,13.81
2023-08-08T19:47:52.784Z,13.82
2023-08-08T19:49:24.951Z,13.83
2023-08-08T19:50:57.010Z,13.86
2023-08-08T19:52:28.945Z,13.88
2023-08-08T19:54:00.958Z,13.90
2023-08-08T19:55:33.879Z,13.91